Terminal Aerodrome Forecast
Issued by NWS Albany, NY

Home | Current Version | Previous Version | Text Only | Print | Product List | Glossary On
Versions: 1 2 3 4 5 6 7 8 9 10 11 12 13 14 15 16 17 18 19 20 21 22 23 24 25 26 27 28 29 30 31 32 33 34 35 36 37 38 39
676
FTUS41 KALY 041123
TAFALB
TAF
KALB 041123Z 0412/0512 11004KT 6SM -DZ BR FEW008 OVC022
      TEMPO 0412/0413 4SM -DZ BR SCT008 OVC020
     FM041300 06004KT 3SM -RA BR SCT007 OVC015
     FM042100 01005KT 5SM BR VCSH SCT005 OVC012
     FM050300 01005KT 2SM -DZ BR BKN008 OVC015=

USA.gov is the U.S. government's official web portal to all federal, state and local government web resources and services.